createdAt,value
2022-10-30T00:00:16.100Z,94.57
2022-10-30T00:02:42.385Z,107.82
2022-10-30T00:05:08.695Z,126.63
2022-10-30T00:07:34.942Z,134.98
2022-10-30T00:10:01.206Z,137.50
2022-10-30T00:12:27.463Z,133.38
2022-10-30T00:14:53.729Z,141.38
2022-10-30T00:17:19.990Z,114.53
2022-10-30T00:19:46.305Z,94.13
2022-10-30T00:22:12.565Z,80.70
2022-10-30T00:24:38.812Z,84.22
2022-10-30T00:27:05.099Z,85.03
2022-10-30T00:29:31.374Z,87.78
2022-10-30T00:31:57.629Z,96.43
2022-10-30T00:34:23.942Z,97.10
2022-10-30T00:36:50.187Z,84.85
2022-10-30T00:39:16.447Z,87.65
2022-10-30T00:41:42.792Z,81.82
2022-10-30T00:44:09.051Z,78.20
2022-10-30T00:46:35.312Z,81.82
2022-10-30T00:49:01.589Z,75.65
2022-10-30T00:51:27.833Z,77.47
2022-10-30T00:53:54.086Z,72.15
2022-10-30T00:56:20.345Z,74.88
2022-10-30T00:58:46.595Z,76.00
2022-10-30T01:01:12.944Z,85.93
2022-10-30T01:03:39.311Z,99.22
2022-10-30T01:06:05.571Z,97.93
2022-10-30T01:08:31.945Z,92.97
2022-10-30T01:10:58.331Z,83.57
2022-10-30T01:13:24.600Z,67.88
2022-10-30T01:15:50.854Z,103.85
2022-10-30T01:18:17.152Z,97.93
2022-10-30T01:20:43.393Z,74.38
2022-10-30T01:23:09.711Z,74.88
2022-10-30T01:25:35.966Z,69.97
2022-10-30T01:28:02.266Z,70.15
2022-10-30T01:30:28.515Z,76.90
2022-10-30T01:32:55.003Z,82.30
2022-10-30T01:35:21.582Z,92.43
2022-10-30T01:37:47.820Z,99.22
2022-10-30T01:40:14.373Z,100.38
2022-10-30T01:42:40.623Z,97.75
2022-10-30T01:45:06.878Z,84.93
2022-10-30T01:47:33.142Z,75.00
2022-10-30T01:49:59.411Z,78.13
2022-10-30T01:52:25.668Z,103.50
2022-10-30T01:54:51.933Z,110.18
2022-10-30T01:57:18.190Z,106.13
2022-10-30T01:59:44.458Z,107.65
2022-10-30T02:02:10.781Z,112.97
2022-10-30T02:04:37.131Z,105.90
2022-10-30T02:07:03.379Z,107.93
2022-10-30T02:09:29.624Z,108.38
2022-10-30T02:11:55.873Z,113.75
2022-10-30T02:14:22.121Z,119.18
2022-10-30T02:16:48.374Z,113.85
2022-10-30T02:19:14.625Z,112.18
2022-10-30T02:21:40.881Z,117.03
2022-10-30T02:24:07.142Z,122.07
2022-10-30T02:29:24.021Z,99.63
2022-10-30T02:31:50.359Z,104.20
2022-10-30T02:34:16.655Z,107.60
2022-10-30T02:36:42.910Z,132.23
2022-10-30T02:39:09.182Z,161.60
2022-10-30T02:41:35.453Z,142.13
2022-10-30T02:44:01.953Z,117.53
2022-10-30T02:46:28.225Z,104.78
2022-10-30T02:48:54.476Z,104.97
2022-10-30T02:51:20.741Z,111.82
2022-10-30T02:53:47.420Z,124.47
2022-10-30T02:56:13.745Z,122.35
2022-10-30T02:58:40.123Z,121.38
2022-10-30T03:01:06.811Z,111.50
2022-10-30T03:03:33.102Z,91.85
2022-10-30T03:05:59.402Z,97.38
2022-10-30T03:08:25.649Z,90.63
2022-10-30T03:10:51.968Z,90.13
2022-10-30T03:13:18.221Z,97.00
2022-10-30T03:15:44.502Z,112.95
2022-10-30T03:18:10.763Z,107.95
2022-10-30T03:20:37.063Z,115.40
2022-10-30T03:23:03.313Z,108.07
2022-10-30T03:25:29.590Z,100.97
2022-10-30T03:27:56.115Z,118.90
2022-10-30T03:30:22.718Z,126.85
2022-10-30T03:32:48.973Z,124.57
2022-10-30T03:35:15.285Z,129.57
2022-10-30T03:37:41.590Z,133.77
2022-10-30T03:40:07.873Z,119.47
2022-10-30T03:42:34.124Z,114.85
2022-10-30T03:45:00.394Z,129.07
2022-10-30T03:47:26.651Z,116.45
2022-10-30T03:49:52.916Z,111.43
2022-10-30T03:52:19.169Z,113.57
2022-10-30T03:54:45.430Z,113.95
2022-10-30T03:57:11.695Z,122.25
2022-10-30T03:59:37.962Z,131.45
2022-10-30T04:02:04.398Z,121.63
2022-10-30T04:04:30.770Z,105.00
2022-10-30T04:06:57.030Z,146.48
2022-10-30T04:09:23.291Z,191.98
2022-10-30T04:11:49.572Z,164.88
2022-10-30T04:14:15.830Z,114.35
2022-10-30T04:16:42.121Z,91.63
2022-10-30T04:19:08.402Z,88.03
2022-10-30T04:21:34.755Z,95.47
2022-10-30T04:24:01.037Z,93.72
2022-10-30T04:26:27.288Z,78.28
2022-10-30T04:28:53.546Z,97.68
2022-10-30T04:31:23.188Z,96.15
2022-10-30T04:33:49.434Z,94.63
2022-10-30T04:36:18.053Z,138.30
2022-10-30T04:38:44.323Z,204.30
2022-10-30T04:41:10.597Z,197.98
2022-10-30T04:43:36.871Z,170.63
2022-10-30T04:46:07.015Z,110.28
2022-10-30T04:48:34.953Z,90.75
2022-10-30T04:51:01.486Z,84.38
2022-10-30T04:53:27.772Z,121.68
2022-10-30T04:55:54.167Z,121.65
2022-10-30T04:58:20.423Z,110.57
2022-10-30T05:00:46.689Z,100.28
2022-10-30T05:03:13.061Z,102.13
2022-10-30T05:05:39.318Z,106.45
2022-10-30T05:08:05.573Z,125.85
2022-10-30T05:10:31.824Z,120.40
2022-10-30T05:12:59.959Z,110.88
2022-10-30T05:15:26.218Z,93.63
2022-10-30T05:17:53.246Z,87.40
2022-10-30T05:20:19.434Z,85.60
2022-10-30T05:22:45.716Z,93.45
2022-10-30T05:25:11.963Z,93.22
2022-10-30T05:27:38.209Z,93.10
2022-10-30T05:30:04.511Z,89.13
2022-10-30T05:32:30.800Z,95.47
2022-10-30T05:34:57.067Z,99.40
2022-10-30T05:37:23.528Z,99.43
2022-10-30T05:39:49.774Z,103.75
2022-10-30T05:42:16.494Z,105.18
2022-10-30T05:45:02.759Z,105.95
2022-10-30T05:47:29.002Z,101.43
2022-10-30T05:49:55.262Z,95.70
2022-10-30T05:52:21.555Z,97.15
2022-10-30T05:54:47.807Z,84.93
2022-10-30T05:57:14.069Z,83.70
2022-10-30T05:59:40.329Z,90.18
2022-10-30T06:02:06.746Z,86.60
2022-10-30T06:04:33.042Z,86.90
2022-10-30T06:06:59.314Z,82.15
2022-10-30T06:09:25.636Z,92.72
2022-10-30T06:11:51.890Z,84.18
2022-10-30T06:14:18.152Z,82.75
2022-10-30T06:16:44.405Z,86.88
2022-10-30T06:19:15.523Z,89.38
2022-10-30T06:21:45.240Z,81.88
2022-10-30T06:24:11.517Z,76.93
2022-10-30T06:26:37.769Z,96.38
2022-10-30T06:29:04.145Z,97.05
2022-10-30T06:31:30.407Z,102.15
2022-10-30T06:33:56.660Z,99.93
2022-10-30T06:36:22.935Z,105.20
2022-10-30T06:38:49.196Z,105.55
2022-10-30T06:41:15.454Z,99.32
2022-10-30T06:43:41.728Z,101.32
2022-10-30T06:48:39.163Z,120.40
2022-10-30T06:51:05.411Z,111.43
2022-10-30T06:53:31.680Z,91.43
2022-10-30T06:55:59.075Z,92.75
2022-10-30T06:58:25.419Z,92.30
2022-10-30T07:00:51.664Z,96.20
2022-10-30T07:03:17.916Z,76.47
2022-10-30T07:05:44.201Z,76.50
2022-10-30T07:08:10.452Z,92.78
2022-10-30T07:10:36.705Z,86.82
2022-10-30T07:13:03.013Z,87.82
2022-10-30T07:15:29.386Z,81.65
2022-10-30T07:17:55.980Z,75.05
2022-10-30T07:20:22.450Z,88.00
2022-10-30T07:22:48.887Z,95.93
2022-10-30T07:25:15.142Z,105.63
2022-10-30T07:27:41.421Z,102.53
2022-10-30T07:30:07.669Z,92.03
2022-10-30T07:32:33.917Z,81.95
2022-10-30T07:35:00.187Z,89.00
2022-10-30T07:37:26.435Z,73.38
2022-10-30T07:39:52.690Z,74.53
2022-10-30T07:42:18.946Z,73.13
2022-10-30T07:44:45.201Z,95.30
2022-10-30T07:47:11.481Z,83.55
2022-10-30T07:49:37.759Z,73.85
2022-10-30T07:52:04.335Z,999.90
2022-10-30T07:54:30.601Z,999.90
2022-10-30T07:56:58.291Z,999.90
2022-10-30T07:59:24.566Z,999.90
2022-10-30T08:01:51.051Z,999.90
2022-10-30T08:04:17.388Z,999.90
2022-10-30T08:06:46.970Z,999.90
2022-10-30T08:09:13.243Z,999.90
2022-10-30T08:11:39.531Z,999.90
2022-10-30T08:14:05.795Z,999.90
2022-10-30T08:16:32.061Z,999.90
2022-10-30T08:18:58.338Z,999.90
2022-10-30T08:21:24.594Z,999.90
2022-10-30T08:23:51.614Z,999.90
2022-10-30T08:26:17.800Z,999.90
2022-10-30T08:28:44.057Z,999.90
2022-10-30T08:31:19.347Z,999.90
2022-10-30T08:33:45.620Z,999.90
2022-10-30T08:36:11.908Z,999.90
2022-10-30T08:38:38.234Z,999.90
2022-10-30T08:41:04.523Z,999.90
2022-10-30T08:43:30.791Z,999.90
2022-10-30T08:45:57.065Z,999.90
2022-10-30T08:48:23.326Z,999.90
2022-10-30T08:50:49.580Z,999.90
2022-10-30T08:53:16.014Z,999.90
2022-10-30T08:55:42.261Z,999.90
2022-10-30T08:58:08.533Z,999.90
2022-10-30T09:00:35.556Z,999.90
2022-10-30T09:03:02.344Z,999.90
2022-10-30T09:05:28.994Z,999.90
2022-10-30T09:07:55.443Z,999.90
2022-10-30T09:10:22.132Z,999.90
2022-10-30T09:12:48.433Z,999.90
2022-10-30T09:15:14.689Z,999.90
2022-10-30T09:17:41.052Z,999.90
2022-10-30T09:20:07.323Z,999.90
2022-10-30T09:22:33.591Z,999.90
2022-10-30T09:24:59.871Z,999.90
2022-10-30T09:27:27.492Z,999.90
2022-10-30T09:29:53.759Z,999.90
2022-10-30T09:32:20.038Z,999.90
2022-10-30T09:34:46.345Z,999.90
2022-10-30T09:37:12.666Z,999.90
2022-10-30T09:39:38.961Z,999.90
2022-10-30T09:42:05.226Z,999.90
2022-10-30T09:44:31.496Z,999.90
2022-10-30T09:46:57.791Z,999.90
2022-10-30T09:49:24.057Z,999.90
2022-10-30T09:51:50.306Z,999.90
2022-10-30T09:54:16.599Z,999.90
2022-10-30T09:56:42.848Z,999.90
2022-10-30T09:59:09.164Z,999.90
2022-10-30T10:01:35.520Z,999.90
2022-10-30T10:04:02.128Z,999.90
2022-10-30T10:06:28.469Z,999.90
2022-10-30T10:08:54.736Z,999.90
2022-10-30T10:11:20.997Z,999.90
2022-10-30T10:13:47.262Z,999.90
2022-10-30T10:16:13.522Z,999.90
2022-10-30T10:18:39.786Z,999.90
2022-10-30T10:21:06.039Z,999.90
2022-10-30T10:23:32.331Z,999.90
2022-10-30T10:25:58.628Z,999.90
2022-10-30T10:31:18.081Z,999.90
2022-10-30T10:33:48.834Z,999.90
2022-10-30T10:36:17.550Z,999.90
2022-10-30T10:38:43.801Z,999.90
2022-10-30T10:41:10.130Z,999.90
2022-10-30T10:43:36.429Z,999.90
2022-10-30T10:46:02.689Z,999.90
2022-10-30T10:48:28.974Z,999.90
2022-10-30T10:50:55.253Z,999.90
2022-10-30T10:53:22.126Z,999.90
2022-10-30T10:55:48.693Z,999.90
2022-10-30T10:58:14.969Z,999.90
2022-10-30T11:00:41.236Z,999.90
2022-10-30T11:03:07.577Z,999.90
2022-10-30T11:05:34.758Z,999.90
2022-10-30T11:08:01.834Z,999.90
2022-10-30T11:10:28.214Z,999.90
2022-10-30T11:12:54.481Z,999.90
2022-10-30T11:15:20.795Z,999.90
2022-10-30T11:17:47.069Z,999.90
2022-10-30T11:20:13.329Z,999.90
2022-10-30T11:22:39.610Z,999.90
2022-10-30T11:25:06.120Z,999.90
2022-10-30T11:27:32.628Z,999.90
2022-10-30T11:29:58.911Z,999.90
2022-10-30T11:32:26.370Z,999.90
2022-10-30T11:34:52.679Z,999.90
2022-10-30T11:37:18.930Z,999.90
2022-10-30T11:39:45.210Z,999.90
2022-10-30T11:42:11.473Z,999.90
2022-10-30T11:44:37.815Z,999.90
2022-10-30T11:47:04.160Z,999.90
2022-10-30T11:49:30.437Z,999.90
2022-10-30T11:51:56.727Z,999.90
2022-10-30T11:54:23.045Z,999.90
2022-10-30T11:56:49.307Z,999.90
2022-10-30T11:59:15.575Z,999.90
2022-10-30T12:01:41.937Z,999.90
2022-10-30T12:04:08.275Z,999.90
2022-10-30T12:06:34.538Z,999.90
2022-10-30T12:09:00.839Z,999.90
2022-10-30T12:11:27.110Z,999.90
2022-10-30T12:13:53.374Z,999.90
2022-10-30T12:16:19.915Z,999.90
2022-10-30T12:18:46.197Z,999.90
2022-10-30T12:21:12.648Z,999.90
2022-10-30T12:23:38.904Z,999.90
2022-10-30T12:26:05.259Z,999.90
2022-10-30T12:28:31.596Z,999.90
2022-10-30T12:30:57.859Z,999.90
2022-10-30T12:33:24.126Z,999.90
2022-10-30T12:35:50.381Z,999.90
2022-10-30T12:38:16.673Z,999.90
2022-10-30T12:40:42.939Z,999.90
2022-10-30T12:43:09.202Z,999.90
2022-10-30T12:45:35.484Z,999.90
2022-10-30T12:48:02.219Z,999.90
2022-10-30T12:50:28.806Z,999.90
2022-10-30T12:52:55.071Z,999.90
2022-10-30T12:55:21.432Z,999.90
2022-10-30T12:57:47.695Z,999.90
2022-10-30T13:00:14.604Z,999.90
2022-10-30T13:02:40.817Z,999.90
2022-10-30T13:05:07.074Z,999.90
2022-10-30T13:07:33.338Z,999.90
2022-10-30T13:09:59.606Z,999.90
2022-10-30T13:12:25.860Z,999.90
2022-10-30T13:14:52.137Z,999.90
2022-10-30T13:17:18.391Z,999.90
2022-10-30T13:19:44.661Z,999.90
2022-10-30T13:22:11.025Z,999.90
2022-10-30T13:24:37.294Z,999.90
2022-10-30T13:27:03.542Z,999.90
2022-10-30T13:29:30.306Z,999.90
2022-10-30T13:31:56.567Z,999.90
2022-10-30T13:34:22.948Z,999.90
2022-10-30T13:36:49.220Z,999.90
2022-10-30T13:39:15.534Z,999.90
2022-10-30T13:41:42.281Z,999.90
2022-10-30T13:44:08.561Z,999.90
2022-10-30T13:46:34.839Z,999.90
2022-10-30T13:49:01.134Z,999.90
2022-10-30T13:51:27.563Z,999.90
2022-10-30T13:53:53.834Z,999.90
2022-10-30T13:56:21.848Z,999.90
2022-10-30T13:58:48.116Z,999.90
2022-10-30T14:01:15.139Z,999.90
2022-10-30T14:06:33.499Z,999.90
2022-10-30T14:08:59.831Z,999.90
2022-10-30T14:11:26.129Z,999.90
2022-10-30T14:13:52.422Z,999.90
2022-10-30T14:16:18.688Z,999.90
2022-10-30T14:18:44.977Z,999.90
2022-10-30T14:21:11.240Z,999.90
2022-10-30T14:23:37.497Z,999.90
2022-10-30T14:26:06.559Z,999.90
2022-10-30T14:28:33.202Z,999.90
2022-10-30T14:30:59.461Z,999.90
2022-10-30T14:33:25.741Z,999.90
2022-10-30T14:35:54.885Z,999.90
2022-10-30T14:38:21.607Z,999.90
2022-10-30T14:40:47.893Z,999.90
2022-10-30T14:43:14.153Z,999.90
2022-10-30T14:45:40.409Z,999.90
2022-10-30T14:48:06.669Z,999.90
2022-10-30T14:50:32.948Z,999.90
2022-10-30T14:52:59.609Z,999.90
2022-10-30T14:55:26.083Z,999.90
2022-10-30T14:57:52.417Z,999.90
2022-10-30T15:00:18.806Z,999.90
2022-10-30T15:02:45.165Z,999.90
2022-10-30T15:05:12.734Z,999.90
2022-10-30T15:07:39.127Z,999.90
2022-10-30T15:10:05.473Z,999.90
2022-10-30T15:12:31.743Z,999.90
2022-10-30T15:14:58.013Z,999.90
2022-10-30T15:17:24.290Z,999.90
2022-10-30T15:19:50.571Z,999.90
2022-10-30T15:22:16.829Z,999.90
2022-10-30T15:24:43.082Z,999.90
2022-10-30T15:27:09.354Z,999.90
2022-10-30T15:29:35.674Z,999.90
2022-10-30T15:32:02.099Z,999.90
2022-10-30T15:34:28.408Z,999.90
2022-10-30T15:36:54.954Z,999.90
2022-10-30T15:39:21.222Z,999.90
2022-10-30T15:41:47.513Z,999.90
2022-10-30T15:44:13.828Z,999.90
2022-10-30T15:46:40.263Z,999.90
2022-10-30T15:49:06.532Z,999.90
2022-10-30T15:51:34.198Z,999.90
2022-10-30T15:54:00.499Z,999.90
2022-10-30T15:56:26.767Z,999.90
2022-10-30T15:58:57.839Z,999.90
2022-10-30T16:01:24.211Z,999.90
2022-10-30T16:03:50.613Z,999.90
2022-10-30T16:06:17.116Z,999.90
2022-10-30T16:08:43.417Z,999.90
2022-10-30T16:11:09.685Z,999.90
2022-10-30T16:13:35.933Z,999.90
2022-10-30T16:16:02.238Z,999.90
2022-10-30T16:18:28.592Z,999.90
2022-10-30T16:20:54.893Z,999.90
2022-10-30T16:23:21.528Z,999.90
2022-10-30T16:25:47.810Z,999.90
2022-10-30T16:28:14.063Z,999.90
2022-10-30T16:30:40.334Z,999.90
2022-10-30T16:33:06.596Z,999.90
2022-10-30T16:35:32.869Z,999.90
2022-10-30T16:38:02.529Z,999.90
2022-10-30T16:40:28.849Z,999.90
2022-10-30T16:42:55.219Z,999.90
2022-10-30T16:45:21.481Z,999.90
2022-10-30T16:47:47.789Z,999.90
2022-10-30T16:50:14.078Z,999.90
2022-10-30T16:52:40.350Z,999.90
2022-10-30T16:55:06.632Z,999.90
2022-10-30T16:57:32.912Z,999.90
2022-10-30T16:59:59.209Z,999.90
2022-10-30T17:02:25.520Z,999.90
2022-10-30T17:04:55.343Z,999.90
2022-10-30T17:07:24.233Z,999.90
2022-10-30T17:09:55.823Z,999.90
2022-10-30T17:12:22.088Z,999.90
2022-10-30T17:14:48.395Z,999.90
2022-10-30T17:17:14.662Z,999.90
2022-10-30T17:19:40.956Z,999.90
2022-10-30T17:22:07.206Z,999.90
2022-10-30T17:24:33.467Z,999.90
2022-10-30T17:26:59.721Z,999.90
2022-10-30T17:29:26.128Z,999.90
2022-10-30T17:31:52.393Z,999.90
2022-10-30T17:34:18.700Z,999.90
2022-10-30T17:36:45.020Z,999.90
2022-10-30T17:39:11.363Z,999.90
2022-10-30T17:41:37.812Z,999.90
2022-10-30T17:44:04.118Z,999.90
2022-10-30T17:46:30.393Z,999.90
2022-10-30T17:48:56.940Z,999.90
2022-10-30T17:51:23.218Z,999.90
2022-10-30T17:53:49.542Z,999.90
2022-10-30T17:56:15.815Z,999.90
2022-10-30T17:58:42.108Z,999.90
2022-10-30T18:01:08.387Z,999.90
2022-10-30T18:03:34.700Z,999.90
2022-10-30T18:06:01.188Z,999.90
2022-10-30T18:08:27.489Z,999.90
2022-10-30T18:10:53.762Z,999.90
2022-10-30T18:13:20.036Z,999.90
2022-10-30T18:15:46.309Z,999.90
2022-10-30T18:18:12.863Z,999.90
2022-10-30T18:20:39.141Z,999.90
2022-10-30T18:23:05.539Z,999.90
2022-10-30T18:25:31.876Z,999.90
2022-10-30T18:27:58.441Z,999.90
2022-10-30T18:30:24.709Z,999.90
2022-10-30T18:32:51.000Z,999.90
2022-10-30T18:35:17.274Z,999.90
2022-10-30T18:37:43.537Z,999.90
2022-10-30T18:40:09.804Z,999.90
2022-10-30T18:42:36.057Z,999.90
2022-10-30T18:45:02.330Z,999.90
2022-10-30T18:47:28.581Z,999.90
2022-10-30T18:49:56.563Z,999.90
2022-10-30T18:54:49.027Z,999.90
2022-10-30T18:57:15.280Z,999.90
2022-10-30T18:59:41.541Z,999.90
2022-10-30T19:02:07.922Z,999.90
2022-10-30T19:04:34.315Z,999.90
2022-10-30T19:07:02.065Z,999.90
2022-10-30T19:09:29.318Z,999.90
2022-10-30T19:11:55.597Z,999.90
2022-10-30T19:14:21.862Z,999.90
2022-10-30T19:16:48.130Z,999.90
2022-10-30T19:19:14.857Z,999.90
2022-10-30T19:21:41.116Z,999.90
2022-10-30T19:24:07.416Z,999.90
2022-10-30T19:26:34.156Z,999.90
2022-10-30T19:29:00.415Z,999.90
2022-10-30T19:31:26.695Z,999.90
2022-10-30T19:33:57.465Z,999.90
2022-10-30T19:36:23.993Z,999.90
2022-10-30T19:38:50.253Z,999.90
2022-10-30T19:41:16.661Z,999.90
2022-10-30T19:43:42.949Z,999.90
2022-10-30T19:46:09.209Z,999.90
2022-10-30T19:51:21.759Z,999.90
2022-10-30T19:53:48.143Z,999.90
2022-10-30T19:56:14.431Z,999.90
2022-10-30T19:58:40.689Z,999.90
2022-10-30T20:01:07.019Z,999.90
2022-10-30T20:03:33.403Z,999.90
2022-10-30T20:05:59.777Z,999.90
2022-10-30T20:08:26.091Z,999.90
2022-10-30T20:10:52.364Z,999.90
2022-10-30T20:13:18.743Z,999.90
2022-10-30T20:15:45.039Z,999.90
2022-10-30T20:18:11.315Z,999.90
2022-10-30T20:20:37.873Z,999.90
2022-10-30T20:23:04.126Z,999.90
2022-10-30T20:25:30.391Z,999.90
2022-10-30T20:27:57.950Z,999.90
2022-10-30T20:30:27.001Z,999.90
2022-10-30T20:32:53.260Z,999.90
2022-10-30T20:35:19.512Z,999.90
2022-10-30T20:37:45.774Z,999.90
2022-10-30T20:40:12.026Z,999.90
2022-10-30T20:42:38.378Z,999.90
2022-10-30T20:45:04.668Z,999.90
2022-10-30T20:47:30.950Z,999.90
2022-10-30T20:49:57.219Z,999.90
2022-10-30T20:52:23.490Z,999.90
2022-10-30T20:54:49.800Z,999.90
2022-10-30T20:57:16.103Z,999.90
2022-10-30T20:59:42.364Z,999.90
2022-10-30T21:02:08.825Z,999.90
2022-10-30T21:04:35.143Z,999.90
2022-10-30T21:07:01.421Z,999.90
2022-10-30T21:09:27.692Z,999.90
2022-10-30T21:11:55.878Z,88.18
2022-10-30T21:14:22.147Z,768.20
2022-10-30T21:16:52.993Z,999.90
2022-10-30T21:19:19.246Z,999.90
2022-10-30T21:21:45.566Z,999.90
2022-10-30T21:24:11.824Z,766.42
2022-10-30T21:26:38.084Z,535.08
2022-10-30T21:29:04.885Z,534.17
2022-10-30T21:31:31.133Z,68.13
2022-10-30T21:33:57.396Z,68.70
2022-10-30T21:36:24.650Z,74.63
2022-10-30T21:38:50.907Z,80.90
2022-10-30T21:41:17.205Z,77.78
2022-10-30T21:43:43.455Z,87.47
2022-10-30T22:00:41.282Z,112.53
2022-10-30T22:03:07.599Z,113.63
2022-10-30T22:05:33.856Z,128.32
2022-10-30T22:08:00.340Z,118.65
2022-10-30T22:10:26.989Z,119.65
2022-10-30T22:12:53.270Z,99.93
2022-10-30T22:15:19.522Z,89.63
2022-10-30T22:17:45.765Z,76.93
2022-10-30T22:20:12.079Z,75.45
2022-10-30T22:22:38.369Z,77.35
2022-10-30T22:25:04.742Z,73.93
2022-10-30T22:27:30.993Z,79.22
2022-10-30T22:29:57.252Z,73.38
2022-10-30T22:32:23.557Z,78.35
2022-10-30T22:34:49.899Z,73.93
2022-10-30T22:37:16.166Z,81.15
2022-10-30T22:39:42.418Z,84.85
2022-10-30T22:42:08.718Z,83.45
2022-10-30T22:44:34.981Z,84.55
2022-10-30T22:47:01.254Z,102.03
2022-10-30T22:49:27.522Z,113.25
2022-10-30T22:51:53.785Z,137.25
2022-10-30T22:54:20.048Z,142.00
2022-10-30T22:56:46.314Z,117.60
2022-10-30T22:59:12.584Z,105.53
2022-10-30T23:01:38.978Z,105.53
2022-10-30T23:04:05.297Z,114.82
2022-10-30T23:06:31.567Z,114.65
2022-10-30T23:08:57.826Z,119.20
2022-10-30T23:11:24.123Z,125.07
2022-10-30T23:13:50.389Z,114.18
2022-10-30T23:16:16.657Z,81.18
2022-10-30T23:18:42.914Z,70.30
2022-10-30T23:21:09.178Z,72.28
2022-10-30T23:23:35.891Z,106.82
2022-10-30T23:26:02.145Z,82.47
2022-10-30T23:28:28.452Z,79.07
2022-10-30T23:30:54.713Z,86.90
2022-10-30T23:33:20.967Z,87.03
2022-10-30T23:35:47.235Z,79.63
2022-10-30T23:38:13.553Z,81.15
2022-10-30T23:40:39.797Z,83.97
2022-10-30T23:43:06.265Z,70.82
2022-10-30T23:45:32.599Z,64.57
2022-10-30T23:47:59.101Z,68.72
2022-10-30T23:50:25.497Z,64.13
2022-10-30T23:52:51.749Z,105.75
2022-10-30T23:55:18.012Z,69.53
2022-10-30T23:57:44.757Z,64.65
